Airfield :
LOGIN :

Register | Disclaimer

   EN    FR    IT 

 










Legend :    VFR   Marginal VFR   IFR   Intensive IFR   Very Intensive IFR
Visi :
Ceiling :
>= 8 km
>= 3000ft
5 to 8 km
1000 to 3000 ft
1500m to 5 km
500 to 1000 ft
800 to 1500m
200 to 500 ft
< 800m
< 200 ft
Symbols :   Thunderstorms  Fog  Heavy snow  Heavy precipitations  Wind > 20 kt
SIGMETs :     Misc.  Thunderstorms  Icing  Turbulence  Mountain Waves  Volcanic Ashes






- Airport Elevation : 160 ft
- IATA code : LRT


LFRH - Lorient Lann Bihoue

CURRENT METAR :
  • 241200Z AUTO 07008KT 8000 NSC 06/02 Q1021 BECMG BKN005 BKN008

EXPIRED METARs :
  • 241130Z AUTO 05007KT 020V090 7000 NSC 06/02 Q1021 BECMG BKN005 BKN008
  • 241100Z AUTO 06007KT 7000 NSC 04/01 Q1021 BECMG BKN006 BKN012
  • 241030Z AUTO 05010KT 6000 NSC 04/01 Q1021 BECMG BKN006 BKN012
  • 241000Z AUTO 06010KT 6000 NSC 03/00 Q1021 NOSIG
  • 240930Z AUTO 06009KT 5000 BR NSC 02/00 Q1021 NOSIG

TAF TAF LFRH
Valid from the 24 at 12:00 until the 25 at 12:00 UTC


241100Z 2412/2512 06008KT 7000 NSC
BECMG 2412/2414 BKN005 BKN008
TEMPO 2420/2506 2500 DZ
BECMG 2418/2420 1000 BR OVC002
TEMPO 2422/2508 0500 FG VV///
BECMG 2510/2512 11010KT 6000 NSW BKN008



MET'MAP, your aeronautical weather chart ! - Copyright ORBIFLY December 2007 - Disclaimer

ORBIFLY MET'MAP TEAM :

Programming & Development : Alexandra Zaïnal
Concept & original design : Baudouin d'Aumeries
Assistance for programming : Marc-Olivier Méhu
Technical & hardware support : Manuel Goepfert

Contact : metmap@orbifly.com




SOURCES & CREDITS :

   NOAA